createdAt,value
2023-05-18T00:00:23.745Z,100198.31
2023-05-18T00:01:00.544Z,100198.97
2023-05-18T00:01:32.950Z,100202.78
2023-05-18T00:02:08.556Z,100196.56
2023-05-18T00:02:43.637Z,100202.31
2023-05-18T00:03:16.006Z,100201.22
2023-05-18T00:03:48.549Z,100205.53
2023-05-18T00:04:24.368Z,100201.22
2023-05-18T00:04:57.422Z,100200.41
2023-05-18T00:05:52.794Z,100198.78
2023-05-18T00:06:47.509Z,100214.31
2023-05-18T00:07:19.852Z,100210.47
2023-05-18T00:07:53.501Z,100205.50
2023-05-18T00:08:28.254Z,100209.03
2023-05-18T00:09:00.636Z,100210.13
2023-05-18T00:09:34.140Z,100205.03
2023-05-18T00:10:08.164Z,100212.09
2023-05-18T00:10:42.966Z,100214.81
2023-05-18T00:11:15.221Z,100212.09
2023-05-18T00:11:47.384Z,100215.59
2023-05-18T00:12:22.209Z,100210.13
2023-05-18T00:12:54.401Z,100214.00
2023-05-18T00:13:26.629Z,100211.28
2023-05-18T00:13:58.794Z,100210.47
2023-05-18T00:14:34.423Z,100208.88
2023-05-18T00:15:07.748Z,100206.78
2023-05-18T00:15:39.961Z,100213.03
2023-05-18T00:16:16.144Z,100205.97
2023-05-18T00:16:49.199Z,100209.00
2023-05-18T00:17:24.126Z,100207.06
2023-05-18T00:17:59.177Z,100203.84
2023-05-18T00:18:31.501Z,100203.84
2023-05-18T00:19:03.758Z,100210.91
2023-05-18T00:19:38.598Z,100204.34
2023-05-18T00:20:11.733Z,100203.06
2023-05-18T00:20:44.018Z,100206.56
2023-05-18T00:21:16.435Z,100194.56
2023-05-18T00:21:51.646Z,100203.84
2023-05-18T00:22:23.838Z,100200.34
2023-05-18T00:22:56.036Z,100200.34
2023-05-18T00:23:33.199Z,100202.25
2023-05-18T00:24:06.450Z,100208.81
2023-05-18T00:24:38.734Z,100208.81
2023-05-18T00:25:13.465Z,100206.91
2023-05-18T00:25:45.885Z,100212.66
2023-05-18T00:26:18.040Z,100208.81
2023-05-18T00:26:55.349Z,100214.56
2023-05-18T00:27:27.591Z,100211.56
2023-05-18T00:27:59.754Z,100215.91
2023-05-18T00:28:34.602Z,100212.03
2023-05-18T00:29:07.226Z,100205.00
2023-05-18T00:29:39.529Z,100207.72
2023-05-18T00:30:16.136Z,100209.94
2023-05-18T00:30:48.490Z,100209.47
2023-05-18T00:31:20.757Z,100205.13
2023-05-18T00:31:53.037Z,100211.69
2023-05-18T00:32:30.524Z,100208.66
2023-05-18T00:33:02.753Z,100207.34
2023-05-18T00:33:35.028Z,100207.34
2023-05-18T00:34:10.533Z,100211.22
2023-05-18T00:34:42.796Z,100204.63
2023-05-18T00:35:15.078Z,100208.47
2023-05-18T00:35:50.047Z,100210.41
2023-05-18T00:36:22.221Z,100201.72
2023-05-18T00:36:54.405Z,100206.88
2023-05-18T00:37:29.140Z,100202.53
2023-05-18T00:38:01.626Z,100211.00
2023-05-18T00:38:33.931Z,100206.38
2023-05-18T00:39:08.154Z,100202.03
2023-05-18T00:39:42.914Z,100205.56
2023-05-18T00:40:15.185Z,100211.34
2023-05-18T00:40:47.518Z,100206.69
2023-05-18T00:41:22.921Z,100202.34
2023-05-18T00:41:55.132Z,100211.34
2023-05-18T00:42:29.635Z,100210.84
2023-05-18T00:43:04.454Z,100202.66
2023-05-18T00:43:36.739Z,100213.88
2023-05-18T00:44:08.932Z,100207.63
2023-05-18T00:44:43.702Z,100204.09
2023-05-18T00:45:16.524Z,100211.78
2023-05-18T00:45:48.815Z,100207.13
2023-05-18T00:46:24.428Z,100201.19
2023-05-18T00:46:56.738Z,100207.44
2023-05-18T00:47:32.007Z,100203.91
2023-05-18T00:48:07.447Z,100210.50
2023-05-18T00:48:39.703Z,100208.88
2023-05-18T00:49:12.277Z,100209.69
2023-05-18T00:49:47.134Z,100208.88
2023-05-18T00:50:19.654Z,100203.72
2023-05-18T00:50:52.085Z,100206.47
2023-05-18T00:51:27.713Z,100203.72
2023-05-18T00:52:00.077Z,100207.56
2023-05-18T00:52:33.209Z,100211.09
2023-05-18T00:53:08.033Z,100202.91
2023-05-18T00:53:44.036Z,100198.63
2023-05-18T00:54:17.306Z,100209.81
2023-05-18T00:54:52.417Z,100203.84
2023-05-18T00:55:24.716Z,100211.22
2023-05-18T00:55:57.164Z,100209.31
2023-05-18T00:56:34.466Z,100212.38
2023-05-18T00:57:07.093Z,100216.50
2023-05-18T00:57:42.229Z,100220.03
2023-05-18T00:58:18.118Z,100213.28
2023-05-18T00:58:50.769Z,100228.03
2023-05-18T00:59:23.450Z,100226.41
2023-05-18T01:00:00.537Z,100210.41
2023-05-18T01:00:34.124Z,100216.16
2023-05-18T01:01:06.563Z,100215.34
2023-05-18T01:01:44.090Z,100217.56
2023-05-18T01:02:16.458Z,100216.25
2023-05-18T01:02:54.123Z,100212.72
2023-05-18T01:03:30.373Z,100214.16
2023-05-18T01:04:04.248Z,100218.28
2023-05-18T01:04:38.175Z,100223.72
2023-05-18T01:05:13.790Z,100217.47
2023-05-18T01:05:46.013Z,100212.34
2023-05-18T01:06:18.692Z,100212.34
2023-05-18T01:06:56.883Z,100211.22
2023-05-18T01:07:29.200Z,100217.00
2023-05-18T01:08:03.236Z,100211.53
2023-05-18T01:08:39.344Z,100212.66
2023-05-18T01:09:16.452Z,100212.94
2023-05-18T01:09:48.729Z,100212.16
2023-05-18T01:10:23.596Z,100209.41
2023-05-18T01:11:03.791Z,100207.03
2023-05-18T01:11:49.299Z,100211.97
2023-05-18T01:12:28.715Z,100218.03
2023-05-18T01:13:05.708Z,100213.69
2023-05-18T01:13:47.517Z,100217.22
2023-05-18T01:14:30.710Z,100215.94
2023-05-18T01:15:09.404Z,100220.59
2023-05-18T01:15:49.046Z,100215.13
2023-05-18T01:16:28.707Z,100213.53
2023-05-18T01:17:10.681Z,100215.72
2023-05-18T01:18:01.031Z,100218.47
2023-05-18T01:18:39.352Z,100223.44
2023-05-18T01:19:40.889Z,100220.19
2023-05-18T01:20:38.193Z,100217.00
2023-05-18T01:21:19.638Z,100215.69
2023-05-18T01:21:57.998Z,100214.88
2023-05-18T01:22:41.912Z,100221.13
2023-05-18T01:23:45.511Z,100219.84
2023-05-18T01:24:30.498Z,100209.88
2023-05-18T01:25:10.117Z,100216.94
2023-05-18T01:25:48.819Z,100211.47
2023-05-18T01:26:31.879Z,100218.53
2023-05-18T01:27:08.405Z,100214.19
2023-05-18T01:27:46.757Z,100218.53
2023-05-18T01:28:27.233Z,100218.53
2023-05-18T01:29:03.016Z,100222.38
2023-05-18T01:29:36.067Z,100224.00
2023-05-18T01:30:13.066Z,100222.03
2023-05-18T01:30:45.596Z,100221.25
2023-05-18T01:31:18.185Z,100221.25
2023-05-18T01:31:53.055Z,100223.66
2023-05-18T01:32:26.545Z,100222.84
2023-05-18T01:32:58.844Z,100222.84
2023-05-18T01:33:36.503Z,100222.03
2023-05-18T01:34:08.685Z,100227.50
2023-05-18T01:34:41.266Z,100224.47
2023-05-18T01:35:16.474Z,100221.75
2023-05-18T01:35:49.012Z,100230.22
2023-05-18T01:36:21.355Z,100227.19
2023-05-18T01:36:56.784Z,100229.09
2023-05-18T01:37:29.033Z,100222.03
2023-05-18T01:38:01.375Z,100225.56
2023-05-18T01:38:36.581Z,100226.38
2023-05-18T01:39:10.014Z,100224.00
2023-05-18T01:39:42.825Z,100232.16
2023-05-18T01:40:17.816Z,100227.50
2023-05-18T01:40:59.400Z,100225.91
2023-05-18T01:41:39.425Z,100224.59
2023-05-18T01:42:23.941Z,100225.22
2023-05-18T01:43:05.707Z,100226.59
2023-05-18T01:43:48.050Z,100223.22
2023-05-18T01:44:27.651Z,100227.22
2023-05-18T01:45:07.739Z,100224.50
2023-05-18T01:45:47.406Z,100222.91
2023-05-18T01:46:34.995Z,100227.53
2023-05-18T01:47:12.532Z,100235.22
2023-05-18T01:47:48.875Z,100225.13
2023-05-18T01:48:27.077Z,100231.38
2023-05-18T01:49:02.827Z,100224.81
2023-05-18T01:49:38.920Z,100233.78
2023-05-18T01:50:19.872Z,100221.31
2023-05-18T01:50:58.360Z,100232.50
2023-05-18T01:51:36.871Z,100227.84
2023-05-18T01:52:14.144Z,100228.97
2023-05-18T01:52:52.303Z,100230.88
2023-05-18T01:53:28.022Z,100232.78
2023-05-18T01:54:07.947Z,100235.84
2023-05-18T01:54:46.601Z,100235.31
2023-05-18T01:55:19.985Z,100233.41
2023-05-18T01:55:58.007Z,100234.22
2023-05-18T01:56:34.139Z,100232.59
2023-05-18T01:57:07.610Z,100238.03
2023-05-18T01:57:45.773Z,100238.84
2023-05-18T01:58:22.170Z,100232.09
2023-05-18T01:58:54.625Z,100239.16
2023-05-18T01:59:29.562Z,100236.13
2023-05-18T02:00:04.855Z,100233.41
2023-05-18T02:00:49.225Z,100235.13
2023-05-18T02:01:24.195Z,100230.50
2023-05-18T02:02:00.122Z,100232.09
2023-05-18T02:02:33.100Z,100234.31
2023-05-18T02:03:08.525Z,100244.09
2023-05-18T02:03:40.913Z,100237.06
2023-05-18T02:04:13.254Z,100237.84
2023-05-18T02:04:49.723Z,100237.84
2023-05-18T02:05:22.206Z,100238.16
2023-05-18T02:05:54.456Z,100238.16
2023-05-18T02:06:26.832Z,100246.31
2023-05-18T02:07:01.688Z,100241.97
2023-05-18T02:07:35.391Z,100237.66
2023-05-18T02:08:07.586Z,100243.13
2023-05-18T02:08:40.508Z,100239.59
2023-05-18T02:09:15.278Z,100242.31
2023-05-18T02:09:47.689Z,100238.78
2023-05-18T02:10:20.232Z,100242.31
2023-05-18T02:10:53.086Z,100237.16
2023-05-18T02:11:28.028Z,100241.78
2023-05-18T02:12:02.918Z,100240.50
2023-05-18T02:12:35.361Z,100238.38
2023-05-18T02:13:10.248Z,100237.59
2023-05-18T02:13:42.545Z,100246.84
2023-05-18T02:14:14.787Z,100238.69
2023-05-18T02:14:49.568Z,100244.94
2023-05-18T02:15:22.423Z,100246.06
2023-05-18T02:15:55.101Z,100245.25
2023-05-18T02:16:30.010Z,100244.13
2023-05-18T02:17:03.682Z,100240.59
2023-05-18T02:17:38.392Z,100244.13
2023-05-18T02:18:11.811Z,100239.81
2023-05-18T02:18:46.741Z,100243.31
2023-05-18T02:19:19.928Z,100237.06
2023-05-18T02:19:52.414Z,100242.22
2023-05-18T02:20:24.700Z,100240.59
2023-05-18T02:21:01.938Z,100240.31
2023-05-18T02:21:36.229Z,100246.84
2023-05-18T02:22:08.866Z,100241.41
2023-05-18T02:22:41.686Z,100245.75
2023-05-18T02:23:17.876Z,100247.66
2023-05-18T02:23:50.436Z,100248.78
2023-05-18T02:24:23.518Z,100246.06
2023-05-18T02:24:58.311Z,100246.84
2023-05-18T02:25:30.834Z,100250.38
2023-05-18T02:26:03.323Z,100247.97
2023-05-18T02:26:38.433Z,100247.66
2023-05-18T02:27:15.370Z,100252.28
2023-05-18T02:27:47.674Z,100250.97
2023-05-18T02:28:22.807Z,100250.69
2023-05-18T02:28:54.999Z,100255.31
2023-05-18T02:29:27.197Z,100249.88
2023-05-18T02:30:04.460Z,100253.69
2023-05-18T02:30:36.644Z,100246.66
2023-05-18T02:31:09.843Z,100247.44
2023-05-18T02:31:44.647Z,100251.28
2023-05-18T02:32:16.958Z,100255.13
2023-05-18T02:32:50.983Z,100262.19
2023-05-18T02:33:26.710Z,100253.22
2023-05-18T02:33:59.108Z,100258.94
2023-05-18T02:34:33.155Z,100252.69
2023-05-18T02:35:09.091Z,100258.94
2023-05-18T02:35:41.440Z,100256.53
2023-05-18T02:36:14.636Z,100256.53
2023-05-18T02:36:50.028Z,100257.66
2023-05-18T02:37:23.414Z,100251.41
2023-05-18T02:37:56.081Z,100255.22
2023-05-18T02:38:32.154Z,100254.41
2023-05-18T02:39:05.085Z,100251.69
2023-05-18T02:39:37.302Z,100252.78
2023-05-18T02:40:14.493Z,100261.78
2023-05-18T02:40:47.026Z,100253.13
2023-05-18T02:41:21.689Z,100259.38
2023-05-18T02:41:56.567Z,100253.94
2023-05-18T02:42:32.130Z,100258.56
2023-05-18T02:43:05.431Z,100264.28
2023-05-18T02:43:40.260Z,100253.41
2023-05-18T02:44:13.798Z,100258.84
2023-05-18T02:44:45.999Z,100258.84
2023-05-18T02:45:23.660Z,100257.25
2023-05-18T02:45:55.830Z,100259.97
2023-05-18T02:46:28.275Z,100254.53
2023-05-18T02:47:03.100Z,100254.53
2023-05-18T02:47:35.387Z,100255.66
2023-05-18T02:48:07.762Z,100259.97
2023-05-18T02:48:45.966Z,100260.78
2023-05-18T02:49:18.357Z,100258.63
2023-05-18T02:49:51.867Z,100259.44
2023-05-18T02:50:26.816Z,100254.84
2023-05-18T02:50:59.109Z,100262.16
2023-05-18T02:51:31.704Z,100260.28
2023-05-18T02:52:04.940Z,100259.16
2023-05-18T02:52:39.790Z,100259.97
2023-05-18T02:53:12.306Z,100260.28
2023-05-18T02:53:44.559Z,100259.16
2023-05-18T02:54:22.223Z,100259.97
2023-05-18T02:54:54.998Z,100265.41
2023-05-18T02:55:36.675Z,100262.47
2023-05-18T02:56:18.506Z,100261.66
2023-05-18T02:56:57.132Z,100265.47
2023-05-18T02:57:47.289Z,100261.16
2023-05-18T02:58:26.221Z,100271.03
2023-05-18T02:59:08.690Z,100271.63
2023-05-18T02:59:43.949Z,100275.16
2023-05-18T03:00:19.809Z,100274.03
2023-05-18T03:00:53.242Z,100271.34
2023-05-18T03:01:27.343Z,100271.34
2023-05-18T03:01:59.770Z,100276.78
2023-05-18T03:02:38.948Z,100272.13
2023-05-18T03:03:15.908Z,100272.72
2023-05-18T03:03:50.011Z,100276.25
2023-05-18T03:04:26.220Z,100267.81
2023-05-18T03:05:00.893Z,100270.53
2023-05-18T03:05:33.103Z,100272.94
2023-05-18T03:06:08.388Z,100265.59
2023-05-18T03:06:43.395Z,100262.88
2023-05-18T03:07:15.919Z,100260.16
2023-05-18T03:07:51.181Z,100268.00
2023-05-18T03:08:29.083Z,100272.63
2023-05-18T03:09:01.314Z,100266.38
2023-05-18T03:09:39.970Z,100271.81
2023-05-18T03:10:12.250Z,100273.44
2023-05-18T03:10:47.922Z,100273.44
2023-05-18T03:11:20.200Z,100273.44
2023-05-18T03:11:53.679Z,100274.25
2023-05-18T03:12:28.604Z,100281.91
2023-05-18T03:13:03.479Z,100288.13
2023-05-18T03:13:36.089Z,100278.69
2023-05-18T03:14:08.598Z,100282.69
2023-05-18T03:14:43.551Z,100281.91
2023-05-18T03:15:16.483Z,100283.81
2023-05-18T03:15:51.101Z,100279.50
2023-05-18T03:16:28.516Z,100284.94
2023-05-18T03:17:01.838Z,100283.31
2023-05-18T03:17:34.611Z,100279.50
2023-05-18T03:18:09.911Z,100283.00
2023-05-18T03:18:42.419Z,100284.63
2023-05-18T03:19:16.366Z,100280.50
2023-05-18T03:19:51.610Z,100275.88
2023-05-18T03:20:23.892Z,100282.91
2023-05-18T03:20:56.399Z,100284.50
2023-05-18T03:21:33.770Z,100274.44
2023-05-18T03:22:06.374Z,100281.78
2023-05-18T03:22:39.182Z,100275.25
2023-05-18T03:23:14.092Z,100276.88
2023-05-18T03:23:47.491Z,100281.50
2023-05-18T03:24:20.541Z,100279.31
2023-05-18T03:24:57.292Z,100279.31
2023-05-18T03:25:30.689Z,100280.91
2023-05-18T03:26:04.123Z,100279.00
2023-05-18T03:26:42.034Z,100280.91
2023-05-18T03:27:17.603Z,100280.91
2023-05-18T03:27:51.722Z,100272.75
2023-05-18T03:28:29.100Z,100278.19
2023-05-18T03:29:02.196Z,100280.91
2023-05-18T03:29:34.853Z,100270.03
2023-05-18T03:30:12.789Z,100270.03
2023-05-18T03:30:45.085Z,100275.47
2023-05-18T03:31:17.357Z,100267.81
2023-05-18T03:31:52.357Z,100270.25
2023-05-18T03:32:25.086Z,100278.09
2023-05-18T03:32:57.721Z,100279.72
2023-05-18T03:33:32.569Z,100275.06
2023-05-18T03:34:04.844Z,100271.25
2023-05-18T03:34:37.392Z,100270.94
2023-05-18T03:35:12.972Z,100286.16
2023-05-18T03:35:47.815Z,100278.00
2023-05-18T03:36:26.090Z,100271.44
2023-05-18T03:36:58.379Z,100282.31
2023-05-18T03:37:30.985Z,100273.06
2023-05-18T03:38:03.252Z,100280.09
2023-05-18T03:38:38.039Z,100280.09
2023-05-18T03:39:14.649Z,100284.75
2023-05-18T03:39:46.817Z,100287.97
2023-05-18T03:40:22.934Z,100289.56
2023-05-18T03:40:55.442Z,100291.50
2023-05-18T03:41:28.571Z,100293.41
2023-05-18T03:42:03.402Z,100292.28
2023-05-18T03:42:35.923Z,100286.84
2023-05-18T03:43:08.595Z,100285.75
2023-05-18T03:43:46.902Z,100287.34
2023-05-18T03:44:19.407Z,100290.38
2023-05-18T03:44:52.033Z,100287.34
2023-05-18T03:45:27.237Z,100289.78
2023-05-18T03:45:59.851Z,100290.06
2023-05-18T03:46:32.115Z,100289.78
2023-05-18T03:47:07.979Z,100296.03
2023-05-18T03:47:40.845Z,100293.28
2023-05-18T03:48:13.225Z,100299.56
2023-05-18T03:48:48.026Z,100289.47
2023-05-18T03:49:25.037Z,100292.50
2023-05-18T03:49:58.445Z,100293.28
2023-05-18T03:50:34.042Z,100286.75
2023-05-18T03:51:06.724Z,100296.53
2023-05-18T03:51:39.643Z,100294.59
2023-05-18T03:52:16.067Z,100294.59
2023-05-18T03:52:48.289Z,100287.56
2023-05-18T03:53:21.682Z,100294.59
2023-05-18T03:53:56.444Z,100290.75
2023-05-18T03:54:28.657Z,100298.13
2023-05-18T03:55:01.786Z,100294.28
2023-05-18T03:55:36.658Z,100300.56
2023-05-18T03:56:09.211Z,100295.91
2023-05-18T03:56:42.326Z,100295.91
2023-05-18T03:57:17.095Z,100295.09
2023-05-18T03:57:49.694Z,100295.91
2023-05-18T03:58:24.450Z,100295.91
2023-05-18T03:58:59.484Z,100291.28
2023-05-18T03:59:31.767Z,100294.81
2023-05-18T04:00:12.374Z,100293.69
2023-05-18T04:00:50.782Z,100291.56
2023-05-18T04:01:24.081Z,100292.09
2023-05-18T04:02:00.410Z,100292.09
2023-05-18T04:02:32.871Z,100296.41
2023-05-18T04:03:05.267Z,100297.22
2023-05-18T04:03:37.840Z,100298.53
2023-05-18T04:04:18.483Z,100295.81
2023-05-18T04:04:54.229Z,100298.53
2023-05-18T04:05:26.441Z,100293.09
2023-05-18T04:06:01.274Z,100300.13
2023-05-18T04:06:35.559Z,100291.97
2023-05-18T04:07:07.852Z,100292.75
2023-05-18T04:07:44.430Z,100295.50
2023-05-18T04:08:19.448Z,100291.19
2023-05-18T04:08:51.654Z,100296.63
2023-05-18T04:09:24.177Z,100298.22
2023-05-18T04:09:56.792Z,100292.75
2023-05-18T04:10:31.576Z,100301.75
2023-05-18T04:11:04.922Z,100299.03
2023-05-18T04:11:37.160Z,100295.50
2023-05-18T04:12:12.476Z,100294.69
2023-05-18T04:12:44.681Z,100299.03
2023-05-18T04:13:16.831Z,100305.28
2023-05-18T04:13:51.575Z,100303.34
2023-05-18T04:14:28.306Z,100305.28
2023-05-18T04:15:01.060Z,100306.06
2023-05-18T04:15:36.625Z,100304.97
2023-05-18T04:16:10.837Z,100307.69
2023-05-18T04:16:43.244Z,100301.94
2023-05-18T04:17:17.440Z,100308.69
2023-05-18T04:17:54.055Z,100304.34
2023-05-18T04:18:30.430Z,100305.16
2023-05-18T04:19:06.258Z,100310.59
2023-05-18T04:19:42.737Z,100313.34
2023-05-18T04:20:15.527Z,100313.03
2023-05-18T04:20:47.802Z,100314.63
2023-05-18T04:21:23.389Z,100314.31
2023-05-18T04:21:55.704Z,100313.53
2023-05-18T04:22:31.388Z,100307.78
2023-05-18T04:23:06.596Z,100315.94
2023-05-18T04:23:39.536Z,100319.47
2023-05-18T04:24:14.649Z,100324.59
2023-05-18T04:24:50.782Z,100321.56
2023-05-18T04:25:27.354Z,100316.94
2023-05-18T04:26:00.160Z,100316.13
2023-05-18T04:26:36.909Z,100310.41
2023-05-18T04:27:09.612Z,100312.31
2023-05-18T04:27:42.461Z,100321.78
2023-05-18T04:28:17.305Z,100318.25
2023-05-18T04:28:50.135Z,100324.19
2023-05-18T04:29:22.684Z,100318.75
2023-05-18T04:30:00.056Z,100319.25
2023-05-18T04:30:33.235Z,100323.91
2023-05-18T04:31:06.214Z,100325.81
2023-05-18T04:31:44.898Z,100319.75
2023-05-18T04:32:19.060Z,100330.63
2023-05-18T04:32:51.456Z,100323.28
2023-05-18T04:33:26.501Z,100326.47
2023-05-18T04:34:00.610Z,100324.56
2023-05-18T04:34:34.547Z,100324.56
2023-05-18T04:35:10.910Z,100325.09
2023-05-18T04:35:44.764Z,100325.91
2023-05-18T04:36:21.123Z,100323.16
2023-05-18T04:36:58.787Z,100321.25
2023-05-18T04:37:31.020Z,100321.25
2023-05-18T04:38:05.514Z,100328.28
2023-05-18T04:38:40.823Z,100327.19
2023-05-18T04:39:13.480Z,100325.28
2023-05-18T04:39:46.106Z,100326.88
2023-05-18T04:40:21.464Z,100326.59
2023-05-18T04:40:57.236Z,100331.22
2023-05-18T04:41:30.238Z,100330.41
2023-05-18T04:42:05.071Z,100327.06
2023-05-18T04:42:37.398Z,100330.59
2023-05-18T04:43:09.609Z,100325.97
2023-05-18T04:43:44.415Z,100329.19
2023-05-18T04:44:18.435Z,100331.91
2023-05-18T04:44:52.427Z,100331.59
2023-05-18T04:45:30.299Z,100332.94
2023-05-18T04:46:02.960Z,100325.06
2023-05-18T04:46:39.910Z,100326.66
2023-05-18T04:47:16.490Z,100329.88
2023-05-18T04:47:54.065Z,100331.19
2023-05-18T04:48:29.761Z,100325.25
2023-05-18T04:49:01.980Z,100333.91
2023-05-18T04:49:38.834Z,100327.34
2023-05-18T04:50:13.769Z,100329.75
2023-05-18T04:50:46.346Z,100334.09
2023-05-18T04:51:21.907Z,100332.66
2023-05-18T04:51:59.564Z,100337.31
2023-05-18T04:52:37.112Z,100340.53
2023-05-18T04:53:12.493Z,100335.09
2023-05-18T04:53:47.546Z,100331.28
2023-05-18T04:54:20.960Z,100337.19
2023-05-18T04:54:53.244Z,100332.25
2023-05-18T04:55:29.454Z,100337.41
2023-05-18T04:56:09.652Z,100337.41
2023-05-18T04:56:44.438Z,100335.19
2023-05-18T04:57:16.598Z,100334.56
2023-05-18T04:57:49.132Z,100335.09
2023-05-18T04:58:24.031Z,100337.50
2023-05-18T04:58:59.563Z,100330.09
2023-05-18T04:59:37.303Z,100339.09
2023-05-18T05:00:13.083Z,100335.56
2023-05-18T05:00:50.508Z,100333.34
2023-05-18T05:01:22.952Z,100343.44
2023-05-18T05:01:55.591Z,100327.91
2023-05-18T05:02:31.085Z,100335.78
2023-05-18T05:03:03.757Z,100329.19
2023-05-18T05:03:36.187Z,100332.72
2023-05-18T05:04:11.359Z,100334.34
2023-05-18T05:04:43.577Z,100331.31
2023-05-18T05:05:15.798Z,100338.06
2023-05-18T05:05:48.147Z,100334.22
2023-05-18T05:06:22.920Z,100336.66
2023-05-18T05:06:55.228Z,100337.41
2023-05-18T05:07:27.385Z,100337.94
2023-05-18T05:08:02.210Z,100345.00
2023-05-18T05:08:35.736Z,100339.22
2023-05-18T05:09:08.361Z,100343.56
2023-05-18T05:09:43.238Z,100340.53
2023-05-18T05:10:15.468Z,100344.06
2023-05-18T05:10:47.686Z,100342.16
2023-05-18T05:11:23.090Z,100344.53
2023-05-18T05:11:56.532Z,100338.78
2023-05-18T05:12:29.226Z,100349.41
2023-05-18T05:13:04.063Z,100340.91
2023-05-18T05:13:36.758Z,100343.31
2023-05-18T05:14:09.053Z,100342.22
2023-05-18T05:14:44.590Z,100344.31
2023-05-18T05:15:17.138Z,100342.38
2023-05-18T05:15:52.191Z,100342.88
2023-05-18T05:16:27.231Z,100337.41
2023-05-18T05:16:59.552Z,100343.38
2023-05-18T05:17:31.778Z,100336.00
2023-05-18T05:18:06.960Z,100345.16
2023-05-18T05:18:40.172Z,100345.16
2023-05-18T05:19:12.536Z,100335.88
2023-05-18T05:19:44.985Z,100343.72
2023-05-18T05:20:20.643Z,100339.88
2023-05-18T05:20:53.834Z,100341.50
2023-05-18T05:21:27.035Z,100343.13
2023-05-18T05:21:59.345Z,100342.78
2023-05-18T05:22:34.207Z,100342.78
2023-05-18T05:23:07.680Z,100346.03
2023-05-18T05:23:43.242Z,100345.22
2023-05-18T05:24:18.121Z,100343.00
2023-05-18T05:24:51.316Z,100341.38
2023-05-18T05:25:23.617Z,100345.41
2023-05-18T05:25:58.743Z,100348.63
2023-05-18T05:26:35.671Z,100351.34
2023-05-18T05:27:07.993Z,100351.81
2023-05-18T05:27:42.882Z,100348.00
2023-05-18T05:28:15.243Z,100346.88
2023-05-18T05:28:48.256Z,100350.41
2023-05-18T05:29:23.462Z,100343.84
2023-05-18T05:29:56.525Z,100350.91
2023-05-18T05:30:29.171Z,100351.41
2023-05-18T05:31:06.625Z,100350.28
2023-05-18T05:31:39.167Z,100346.75
2023-05-18T05:32:12.545Z,100348.38
2023-05-18T05:32:47.989Z,100351.56
2023-05-18T05:33:20.265Z,100346.13
2023-05-18T05:33:52.607Z,100348.53
2023-05-18T05:34:27.364Z,100340.84
2023-05-18T05:34:59.931Z,100353.34
2023-05-18T05:35:33.571Z,100350.34
2023-05-18T05:36:09.755Z,100354.34
2023-05-18T05:36:42.123Z,100348.88
2023-05-18T05:37:14.763Z,100345.84
2023-05-18T05:37:49.607Z,100352.59
2023-05-18T05:38:22.676Z,100348.78
2023-05-18T05:38:54.943Z,100354.75
2023-05-18T05:39:27.260Z,100344.31
2023-05-18T05:40:02.374Z,100354.09
2023-05-18T05:40:38.026Z,100354.09
2023-05-18T05:41:10.249Z,100349.94
2023-05-18T05:41:45.756Z,100346.91
2023-05-18T05:42:17.940Z,100350.13
2023-05-18T05:42:52.772Z,100349.81
2023-05-18T05:43:25.026Z,100351.41
2023-05-18T05:43:57.266Z,100347.25
2023-05-18T05:44:32.250Z,100355.44
2023-05-18T05:45:05.119Z,100352.41
2023-05-18T05:45:43.754Z,100348.84
2023-05-18T05:46:21.980Z,100352.09
2023-05-18T05:46:54.244Z,100350.16
2023-05-18T05:47:26.722Z,100352.56
2023-05-18T05:48:01.850Z,100347.59
2023-05-18T05:48:35.975Z,100349.22
2023-05-18T05:49:08.480Z,100357.56
2023-05-18T05:49:43.244Z,100351.00
2023-05-18T05:50:15.451Z,100355.31
2023-05-18T05:50:47.915Z,100356.94
2023-05-18T05:51:21.644Z,100356.63
2023-05-18T05:51:56.514Z,100355.50
2023-05-18T05:52:29.217Z,100357.09
2023-05-18T05:53:01.697Z,100362.25
2023-05-18T05:53:39.805Z,100365.50
2023-05-18T05:54:11.995Z,100361.94
2023-05-18T05:54:44.651Z,100364.34
2023-05-18T05:55:20.225Z,100355.84
2023-05-18T05:55:52.419Z,100354.72
2023-05-18T05:56:24.737Z,100355.53
2023-05-18T05:56:59.535Z,100370.47
2023-05-18T05:57:31.953Z,100354.09
2023-05-18T05:58:05.614Z,100360.06
2023-05-18T05:58:40.510Z,100361.63
2023-05-18T05:59:12.780Z,100360.53
2023-05-18T05:59:45.038Z,100362.13
2023-05-18T06:00:21.020Z,100361.84
2023-05-18T06:00:53.245Z,100368.06
2023-05-18T06:01:29.384Z,100363.13
2023-05-18T06:02:04.488Z,100363.13
2023-05-18T06:02:38.219Z,100363.63
2023-05-18T06:03:10.598Z,100368.75
2023-05-18T06:03:49.259Z,100373.09
2023-05-18T06:04:21.534Z,100362.16
2023-05-18T06:04:53.848Z,100367.31
2023-05-18T06:05:29.088Z,100361.50
2023-05-18T06:06:02.022Z,100358.78
2023-05-18T06:06:35.052Z,100361.22
2023-05-18T06:07:10.055Z,100368.75
2023-05-18T06:07:43.494Z,100361.06
2023-05-18T06:08:17.187Z,100360.75
2023-05-18T06:08:52.563Z,100359.31
2023-05-18T06:09:24.762Z,100372.66
2023-05-18T06:09:56.962Z,100364.94
2023-05-18T06:10:31.942Z,100367.34
2023-05-18T06:11:04.784Z,100364.78
2023-05-18T06:11:37.204Z,100363.97
2023-05-18T06:12:12.985Z,100361.75
2023-05-18T06:12:45.154Z,100368.78
2023-05-18T06:13:18.082Z,100371.22
2023-05-18T06:14:02.074Z,100360.28
2023-05-18T06:14:34.757Z,100359.16
2023-05-18T06:15:09.360Z,100365.13
2023-05-18T06:15:46.581Z,100360.47
2023-05-18T06:16:19.118Z,100357.44
2023-05-18T06:16:53.994Z,100361.44
2023-05-18T06:17:30.881Z,100364.16
2023-05-18T06:18:03.402Z,100364.16
2023-05-18T06:18:36.784Z,100362.75
2023-05-18T06:19:13.264Z,100367.91
2023-05-18T06:19:45.614Z,100364.03
2023-05-18T06:20:18.408Z,100365.63
2023-05-18T06:20:53.190Z,100372.72
2023-05-18T06:21:27.239Z,100363.72
2023-05-18T06:22:02.601Z,100364.50
2023-05-18T06:22:39.372Z,100371.09
2023-05-18T06:23:31.564Z,100365.94
2023-05-18T06:24:07.383Z,100366.44
2023-05-18T06:25:00.656Z,100366.44
2023-05-18T06:25:54.279Z,100365.63
2023-05-18T06:26:37.572Z,100367.72
2023-05-18T06:27:09.816Z,100375.28
2023-05-18T06:27:54.921Z,100370.63
2023-05-18T06:28:46.449Z,100373.03
2023-05-18T06:29:31.914Z,100371.91
2023-05-18T06:30:11.397Z,100365.78
2023-05-18T06:31:06.487Z,100367.41
2023-05-18T06:31:53.568Z,100374.19
2023-05-18T06:32:32.104Z,100371.91
2023-05-18T06:33:04.773Z,100368.53
2023-05-18T06:33:39.572Z,100364.38
2023-05-18T06:34:11.773Z,100370.28
2023-05-18T06:34:46.017Z,100368.88
2023-05-18T06:35:21.074Z,100372.06
2023-05-18T06:35:53.275Z,100375.28
2023-05-18T06:36:25.570Z,100374.63
2023-05-18T06:37:00.711Z,100368.88
2023-05-18T06:37:32.998Z,100362.28
2023-05-18T06:38:05.339Z,100366.28
2023-05-18T06:38:40.470Z,100368.69